createdAt,value
2022-09-12T00:20:30.227Z,19.61
2022-09-12T00:22:57.264Z,19.40
2022-09-12T00:25:23.256Z,19.29
2022-09-12T00:27:50.032Z,19.16
2022-09-12T00:30:16.064Z,19.01
2022-09-12T00:32:42.068Z,18.87
2022-09-12T00:35:09.018Z,18.68
2022-09-12T00:37:35.052Z,18.50
2022-09-12T00:40:01.142Z,18.30
2022-09-12T00:42:27.923Z,18.24
2022-09-12T00:44:53.977Z,18.51
2022-09-12T00:47:20.002Z,18.73
2022-09-12T00:49:46.893Z,18.73
2022-09-12T00:52:13.098Z,18.54
2022-09-12T00:54:39.104Z,18.62
2022-09-12T00:57:05.133Z,18.71
2022-09-12T00:59:32.241Z,18.37
2022-09-12T01:01:58.404Z,18.41
2022-09-12T01:04:25.435Z,18.42
2022-09-12T01:06:51.507Z,18.31
2022-09-12T01:09:17.580Z,18.24
2022-09-12T01:11:43.589Z,18.41
2022-09-12T01:14:09.689Z,18.48
2022-09-12T01:16:36.542Z,18.43
2022-09-12T01:19:03.165Z,18.48
2022-09-12T01:21:29.234Z,18.47
2022-09-12T01:23:55.319Z,18.44
2022-09-12T01:26:22.257Z,18.38
2022-09-12T01:28:49.158Z,18.54
2022-09-12T01:31:16.049Z,18.60
2022-09-12T01:33:42.752Z,18.70
2022-09-12T01:36:08.859Z,18.87
2022-09-12T01:38:35.615Z,18.81
2022-09-12T01:41:01.629Z,18.62
2022-09-12T01:43:27.696Z,18.54
2022-09-12T01:45:54.715Z,18.68
2022-09-12T01:48:21.617Z,18.58
2022-09-12T01:50:48.520Z,18.41
2022-09-12T01:53:15.325Z,18.39
2022-09-12T01:55:41.413Z,18.54
2022-09-12T01:58:07.457Z,18.40
2022-09-12T02:00:35.155Z,18.38
2022-09-12T02:03:01.707Z,18.52
2022-09-12T02:05:28.104Z,18.49
2022-09-12T02:07:55.010Z,18.24
2022-09-12T02:10:21.037Z,18.17
2022-09-12T02:12:47.095Z,18.25
2022-09-12T02:15:14.087Z,18.24
2022-09-12T02:17:42.246Z,18.33
2022-09-12T02:20:08.306Z,18.23
2022-09-12T02:22:34.391Z,18.15
2022-09-12T02:25:00.397Z,18.21
2022-09-12T02:27:27.360Z,18.37
2022-09-12T02:29:53.419Z,18.28
2022-09-12T02:32:19.441Z,18.14
2022-09-12T02:34:46.237Z,18.09
2022-09-12T02:37:12.316Z,18.17
2022-09-12T02:39:41.095Z,18.20
2022-09-12T02:42:10.476Z,18.17
2022-09-12T02:44:37.573Z,18.02
2022-09-12T02:47:03.711Z,18.02
2022-09-12T02:49:29.914Z,18.19
2022-09-12T02:51:56.803Z,18.14
2022-09-12T02:54:23.010Z,18.09
2022-09-12T02:56:49.012Z,18.14
2022-09-12T02:59:17.843Z,18.22
2022-09-12T03:01:44.071Z,18.28
2022-09-12T03:04:10.170Z,18.28
2022-09-12T03:06:37.356Z,18.16
2022-09-12T03:09:03.480Z,18.10
2022-09-12T03:14:10.817Z,18.21
2022-09-12T05:23:59.736Z,18.99
2022-09-12T05:26:26.239Z,19.05
2022-09-12T05:28:52.221Z,19.29
2022-09-12T05:31:18.168Z,19.44
2022-09-12T05:33:44.876Z,19.45
2022-09-12T05:36:10.830Z,19.60
2022-09-12T05:38:36.797Z,19.57
2022-09-12T05:41:02.740Z,19.68
2022-09-12T05:43:28.683Z,19.82
2022-09-12T05:45:54.639Z,19.89
2022-09-12T05:48:20.611Z,19.99
2022-09-12T05:50:47.261Z,20.08
2022-09-12T05:53:13.269Z,20.08
2022-09-12T05:55:39.227Z,20.13
2022-09-12T05:58:06.043Z,20.29
2022-09-12T06:00:33.612Z,20.39
2022-09-12T06:02:59.697Z,20.54
2022-09-12T06:08:10.685Z,20.80
2022-09-12T06:10:36.698Z,20.97
2022-09-12T06:13:02.624Z,20.96
2022-09-12T06:15:28.629Z,21.09
2022-09-12T06:17:54.570Z,21.03
2022-09-12T06:20:20.559Z,21.27
2022-09-12T06:22:47.396Z,21.25
2022-09-12T06:25:13.334Z,21.29
2022-09-12T06:27:39.292Z,21.46
2022-09-12T06:30:05.977Z,21.24
2022-09-12T06:32:31.942Z,21.24
2022-09-12T06:34:57.875Z,21.19
2022-09-12T06:37:24.748Z,21.06
2022-09-12T06:39:50.723Z,20.97
2022-09-12T06:42:16.711Z,21.22
2022-09-12T06:44:42.634Z,21.30
2022-09-12T06:47:08.584Z,21.36
2022-09-12T06:49:34.590Z,21.37
2022-09-12T06:52:00.523Z,21.69
2022-09-12T06:54:26.825Z,22.20
2022-09-12T06:56:52.800Z,22.29
2022-09-12T06:59:18.778Z,22.64
2022-09-12T07:01:45.673Z,22.70
2022-09-12T07:04:11.720Z,22.74
2022-09-12T07:06:37.912Z,22.85
2022-09-12T07:09:03.897Z,22.64
2022-09-12T07:11:30.549Z,22.52
2022-09-12T07:16:22.521Z,22.98
2022-09-12T07:18:48.527Z,23.28
2022-09-12T07:21:14.484Z,23.06
2022-09-12T07:23:40.442Z,23.47
2022-09-12T07:26:06.453Z,23.63
2022-09-12T07:28:33.114Z,23.69
2022-09-12T07:30:59.487Z,23.49
2022-09-12T07:33:27.104Z,22.76
2022-09-12T07:35:53.375Z,22.93
2022-09-12T07:38:19.695Z,23.15
2022-09-12T07:40:47.145Z,23.30
2022-09-12T07:43:13.258Z,23.26
2022-09-12T09:23:28.591Z,26.74
2022-09-12T09:25:54.610Z,27.04
2022-09-12T09:28:20.546Z,27.33
2022-09-12T09:30:46.568Z,26.44
2022-09-12T09:33:12.545Z,26.55
2022-09-12T09:35:39.262Z,26.63
2022-09-12T09:38:05.239Z,26.26
2022-09-12T09:40:31.248Z,26.53
2022-09-12T09:42:57.209Z,26.92
2022-09-12T09:45:23.807Z,27.10
2022-09-12T09:47:49.774Z,27.14
2022-09-12T09:50:15.725Z,27.24
2022-09-12T09:52:41.661Z,27.48
2022-09-12T09:55:07.627Z,27.75
2022-09-12T09:57:33.565Z,27.71
2022-09-12T09:59:59.555Z,27.61
2022-09-12T10:02:26.338Z,27.57
2022-09-12T10:04:52.278Z,27.71
2022-09-12T10:07:18.240Z,27.47
2022-09-12T10:09:44.799Z,27.00
2022-09-12T10:12:10.820Z,26.84
2022-09-12T10:14:36.793Z,27.04
2022-09-12T10:17:03.519Z,27.12
2022-09-12T10:19:29.508Z,27.52
2022-09-12T10:21:55.458Z,27.56
2022-09-12T10:24:21.411Z,28.08
2022-09-12T10:26:47.475Z,28.16
2022-09-12T10:29:13.474Z,28.10
2022-09-12T10:31:39.408Z,27.81
2022-09-12T10:34:05.383Z,28.39
2022-09-12T10:36:32.178Z,28.88
2022-09-12T10:38:58.109Z,28.81
2022-09-12T10:41:24.974Z,29.25
2022-09-12T10:43:50.912Z,28.73
2022-09-12T10:46:16.918Z,29.06
2022-09-12T10:48:42.890Z,29.18
2022-09-12T10:51:09.065Z,28.77
2022-09-12T10:53:35.798Z,29.40
2022-09-12T10:56:01.789Z,29.45
2022-09-12T10:58:27.760Z,29.91
2022-09-12T11:00:54.480Z,30.41
2022-09-12T11:03:20.508Z,29.51
2022-09-12T11:05:46.455Z,28.95
2022-09-12T11:08:13.244Z,29.02
2022-09-12T11:10:43.772Z,29.10
2022-09-12T11:13:10.861Z,29.18
2022-09-12T11:15:36.871Z,30.01
2022-09-12T11:18:02.852Z,30.69
2022-09-12T11:20:28.916Z,30.90
2022-09-12T11:22:54.866Z,30.80
2022-09-12T11:25:21.027Z,31.32
2022-09-12T11:27:47.087Z,31.15
2022-09-12T11:30:13.130Z,31.46
2022-09-12T11:32:39.175Z,30.91
2022-09-12T11:35:05.183Z,31.01
2022-09-12T11:37:31.929Z,30.90
2022-09-12T11:39:57.903Z,29.96
2022-09-12T11:42:23.912Z,30.37
2022-09-12T11:44:50.746Z,29.97
2022-09-12T11:47:16.723Z,31.03
2022-09-12T11:49:42.791Z,31.91
2022-09-12T11:52:08.823Z,31.98
2022-09-12T11:54:35.441Z,31.80
2022-09-12T11:57:01.489Z,31.15
2022-09-12T11:59:27.422Z,31.59
2022-09-12T12:01:53.856Z,31.86
2022-09-12T12:04:20.149Z,32.30
2022-09-12T12:06:46.577Z,31.75
2022-09-12T12:09:13.010Z,31.74
2022-09-12T12:11:40.045Z,32.10
2022-09-12T12:16:47.830Z,31.64
2022-09-12T14:29:13.247Z,30.42
2022-09-12T14:31:39.860Z,30.45
2022-09-12T14:34:06.811Z,30.29
2022-09-12T14:36:33.079Z,29.96
2022-09-12T14:38:59.056Z,29.85
2022-09-12T14:41:25.010Z,29.74
2022-09-12T14:43:51.601Z,30.48
2022-09-12T14:46:17.561Z,30.66
2022-09-12T14:48:44.188Z,30.41
2022-09-12T14:51:10.276Z,30.08
2022-09-12T14:53:36.290Z,30.41
2022-09-12T14:56:03.233Z,30.27
2022-09-12T14:58:29.158Z,29.73
2022-09-12T15:00:55.113Z,30.07
2022-09-12T15:03:21.091Z,30.12
2022-09-12T15:05:47.019Z,30.19
2022-09-12T15:08:13.915Z,30.48
2022-09-12T15:10:41.889Z,29.73
2022-09-12T15:13:07.838Z,29.46
2022-09-12T15:15:33.849Z,30.15
2022-09-12T15:18:02.378Z,29.94
2022-09-12T15:20:31.821Z,30.00
2022-09-12T15:22:57.761Z,30.21
2022-09-12T15:25:23.710Z,29.91
2022-09-12T15:27:50.639Z,29.81
2022-09-12T15:30:16.607Z,29.11
2022-09-12T15:32:42.614Z,28.92
2022-09-12T15:35:09.275Z,28.82
2022-09-12T15:37:35.555Z,28.95
2022-09-12T15:40:01.679Z,29.26
2022-09-12T15:42:28.493Z,29.47
2022-09-12T15:44:54.423Z,29.37
2022-09-12T15:47:21.192Z,29.05
2022-09-12T15:49:48.089Z,29.00
2022-09-12T15:52:14.036Z,28.88
2022-09-12T15:54:40.002Z,28.75
2022-09-12T15:57:06.654Z,28.79
2022-09-12T15:59:32.877Z,28.86
2022-09-12T16:01:58.876Z,28.56
2022-09-12T16:04:24.846Z,28.49
2022-09-12T16:06:50.854Z,28.96
2022-09-12T16:09:16.950Z,28.94
2022-09-12T16:11:43.798Z,28.60
2022-09-12T16:14:09.806Z,28.30
2022-09-12T16:16:36.267Z,28.33
2022-09-12T16:19:02.204Z,28.04
2022-09-12T16:21:28.186Z,28.00
2022-09-12T16:23:54.156Z,27.88
2022-09-12T16:26:20.169Z,28.17
2022-09-12T16:28:46.578Z,28.16
2022-09-12T16:31:13.613Z,28.07
2022-09-12T16:33:41.623Z,28.34
2022-09-12T16:36:07.570Z,28.04
2022-09-12T16:38:34.404Z,28.12
2022-09-12T16:41:00.370Z,27.51
2022-09-12T16:43:26.299Z,27.35
2022-09-12T16:45:52.309Z,27.53
2022-09-12T16:48:18.703Z,27.55
2022-09-12T16:50:45.528Z,27.47
2022-09-12T16:53:11.509Z,27.49
2022-09-12T16:55:37.448Z,27.42
2022-09-12T16:58:04.310Z,27.39
2022-09-12T17:00:30.292Z,27.40
2022-09-12T17:02:56.301Z,27.47
2022-09-12T17:05:22.281Z,27.27
2022-09-12T17:07:48.575Z,27.23
2022-09-12T17:10:14.835Z,27.28
2022-09-12T17:12:42.389Z,27.23
2022-09-12T17:15:08.666Z,27.13
2022-09-12T17:17:34.966Z,27.13
2022-09-12T17:20:01.133Z,26.92
2022-09-12T17:22:27.366Z,26.95
2022-09-12T19:14:08.662Z,24.79
2022-09-12T19:16:34.586Z,24.67
2022-09-12T19:19:01.300Z,24.50
2022-09-12T19:21:27.322Z,24.42
2022-09-12T19:23:53.296Z,24.40
2022-09-12T19:26:19.821Z,24.42
2022-09-12T19:28:45.844Z,24.39
2022-09-12T19:31:11.817Z,24.32
2022-09-12T19:33:37.826Z,24.31
2022-09-12T19:36:03.809Z,24.29
2022-09-12T19:38:30.264Z,24.11
2022-09-12T19:40:56.434Z,24.13
2022-09-12T19:43:22.375Z,24.20
2022-09-12T19:45:49.007Z,24.13
2022-09-12T19:48:15.022Z,23.93
2022-09-12T19:50:40.971Z,23.88
2022-09-12T19:53:06.912Z,23.93
2022-09-12T19:55:33.543Z,23.86
2022-09-12T19:57:59.489Z,23.81
2022-09-12T20:00:25.466Z,23.64
2022-09-12T20:02:52.325Z,23.58
2022-09-12T20:05:18.318Z,23.61
2022-09-12T20:07:44.255Z,23.61
2022-09-12T20:10:11.029Z,23.61
2022-09-12T20:12:36.985Z,23.50
2022-09-12T20:15:02.949Z,23.24
2022-09-12T20:17:29.634Z,23.19
2022-09-12T20:19:55.561Z,23.11
2022-09-12T20:22:21.515Z,23.01
2022-09-12T20:24:48.240Z,23.08
2022-09-12T20:27:14.385Z,23.15
2022-09-12T20:29:40.327Z,23.09
2022-09-12T20:32:06.274Z,23.01
2022-09-12T20:34:32.242Z,23.01
2022-09-12T20:36:58.834Z,22.87
2022-09-12T20:39:24.794Z,22.80
2022-09-12T20:41:51.504Z,22.75
2022-09-12T20:44:17.487Z,22.82
2022-09-12T20:46:43.484Z,22.84
2022-09-12T20:49:09.526Z,22.88
2022-09-12T20:51:35.499Z,22.73
2022-09-12T20:54:02.107Z,22.66
2022-09-12T20:56:28.134Z,22.56
2022-09-12T20:58:54.124Z,22.61
2022-09-12T21:01:20.304Z,22.65
2022-09-12T21:03:46.393Z,22.60
2022-09-12T21:06:12.409Z,22.50
2022-09-12T21:08:39.120Z,22.34
2022-09-12T21:11:05.092Z,22.22
2022-09-12T21:13:31.080Z,22.25
2022-09-12T21:15:57.803Z,22.31
2022-09-12T21:18:23.964Z,22.25
2022-09-12T21:20:49.925Z,22.32
2022-09-12T21:23:15.899Z,22.15
2022-09-12T21:25:51.922Z,21.98
2022-09-12T21:28:18.293Z,21.87
2022-09-12T21:30:44.252Z,21.85
2022-09-12T21:33:10.897Z,21.88
2022-09-12T21:35:36.891Z,21.85
2022-09-12T21:38:02.819Z,21.61
2022-09-12T21:40:29.519Z,21.59
2022-09-12T21:42:55.516Z,21.55
2022-09-12T21:45:21.459Z,21.52
2022-09-12T21:47:47.416Z,21.50
2022-09-12T21:50:13.664Z,21.51
2022-09-12T21:52:41.356Z,21.55
2022-09-12T21:55:07.571Z,21.42
2022-09-12T21:57:33.844Z,21.27
2022-09-12T22:00:00.092Z,21.21
2022-09-12T22:02:26.465Z,21.23
2022-09-12T22:04:52.728Z,21.19
2022-09-12T22:07:19.898Z,21.11
